createdAt,value
2023-01-12T00:02:19.875Z,20.25
2023-01-12T00:04:47.852Z,22.25
2023-01-12T00:07:18.037Z,18.05
2023-01-12T00:09:45.891Z,19.83
2023-01-12T00:12:14.568Z,22.48
2023-01-12T00:14:42.441Z,20.17
2023-01-12T00:17:11.907Z,24.10
2023-01-12T00:19:41.508Z,22.25
2023-01-12T00:22:12.339Z,16.95
2023-01-12T00:24:42.534Z,24.13
2023-01-12T00:27:12.142Z,24.30
2023-01-12T00:29:40.430Z,19.73
2023-01-12T00:32:13.749Z,21.00
2023-01-12T00:34:46.167Z,21.92
2023-01-12T00:37:15.985Z,22.60
2023-01-12T00:39:53.107Z,18.23
2023-01-12T00:42:38.617Z,24.35
2023-01-12T00:45:24.998Z,23.15
2023-01-12T00:47:53.967Z,15.90
2023-01-12T00:50:23.438Z,21.20
2023-01-12T00:52:51.337Z,25.60
2023-01-12T00:55:19.839Z,18.75
2023-01-12T00:57:48.078Z,21.42
2023-01-12T01:00:17.204Z,18.10
2023-01-12T01:02:45.603Z,26.25
2023-01-12T01:05:13.493Z,21.05
2023-01-12T01:07:43.902Z,24.40
2023-01-12T01:10:15.709Z,15.70
2023-01-12T01:12:43.806Z,26.92
2023-01-12T01:15:14.576Z,29.15
2023-01-12T01:17:43.110Z,27.20
2023-01-12T01:20:12.577Z,25.10
2023-01-12T01:22:40.387Z,19.27
2023-01-12T01:25:11.262Z,28.48
2023-01-12T01:27:39.226Z,26.20
2023-01-12T01:30:08.401Z,21.52
2023-01-12T01:32:36.765Z,26.60
2023-01-12T01:35:04.970Z,20.20
2023-01-12T01:37:32.835Z,25.10
2023-01-12T01:40:01.311Z,25.77
2023-01-12T01:42:30.558Z,40.92
2023-01-12T01:45:00.417Z,28.85
2023-01-12T01:47:34.140Z,25.20
2023-01-12T01:50:05.006Z,26.42
2023-01-12T01:52:38.036Z,25.00
2023-01-12T01:55:09.999Z,20.92
2023-01-12T01:57:45.943Z,24.27
2023-01-12T02:00:14.824Z,26.25
2023-01-12T02:02:45.116Z,25.67
2023-01-12T02:05:19.431Z,17.38
2023-01-12T02:07:47.334Z,20.63
2023-01-12T02:10:15.467Z,20.35
2023-01-12T02:13:02.597Z,15.73
2023-01-12T02:15:54.540Z,17.77
2023-01-12T02:18:29.506Z,17.52
2023-01-12T02:21:13.207Z,18.58
2023-01-12T02:24:27.073Z,14.88
2023-01-12T02:27:32.404Z,24.02
2023-01-12T02:30:37.919Z,14.45
2023-01-12T02:33:24.565Z,20.55
2023-01-12T02:36:02.347Z,16.15
2023-01-12T02:38:37.879Z,13.10
2023-01-12T02:41:17.251Z,12.13
2023-01-12T02:43:44.877Z,13.40
2023-01-12T02:46:22.062Z,13.20
2023-01-12T02:48:57.168Z,20.77
2023-01-12T02:51:32.778Z,20.50
2023-01-12T02:54:05.709Z,14.90
2023-01-12T02:56:38.613Z,25.20
2023-01-12T02:59:10.656Z,17.90
2023-01-12T03:01:39.945Z,22.50
2023-01-12T03:04:14.018Z,28.58
2023-01-12T03:06:48.850Z,25.17
2023-01-12T03:09:19.692Z,21.73
2023-01-12T03:11:50.548Z,20.67
2023-01-12T03:14:18.952Z,23.25
2023-01-12T03:16:46.925Z,25.50
2023-01-12T03:19:21.788Z,24.70
2023-01-12T03:21:53.228Z,26.58
2023-01-12T03:24:27.214Z,22.98
2023-01-12T03:27:00.292Z,23.17
2023-01-12T03:29:34.690Z,17.80
2023-01-12T03:32:03.063Z,24.07
2023-01-12T03:34:33.387Z,20.15
2023-01-12T03:37:08.306Z,14.77
2023-01-12T03:39:43.532Z,17.98
2023-01-12T03:42:16.295Z,25.52
2023-01-12T03:44:54.689Z,27.75
2023-01-12T03:47:28.908Z,19.92
2023-01-12T03:50:04.220Z,34.17
2023-01-12T03:52:33.475Z,27.55
2023-01-12T03:55:03.338Z,24.75
2023-01-12T03:57:31.601Z,22.80
2023-01-12T04:00:02.494Z,20.65
2023-01-12T04:02:30.325Z,25.85
2023-01-12T04:04:59.562Z,23.85
2023-01-12T04:07:27.561Z,22.30
2023-01-12T04:09:57.143Z,18.05
2023-01-12T04:12:25.177Z,23.40
2023-01-12T04:14:53.774Z,22.67
2023-01-12T04:17:25.051Z,23.88
2023-01-12T04:19:53.715Z,22.73
2023-01-12T04:22:40.211Z,25.98
2023-01-12T04:25:09.947Z,24.92
2023-01-12T04:27:37.870Z,15.05
2023-01-12T04:30:06.376Z,19.63
2023-01-12T04:32:34.620Z,17.90
2023-01-12T04:35:02.572Z,21.83
2023-01-12T04:37:32.797Z,24.23
2023-01-12T04:40:00.779Z,17.30
2023-01-12T04:42:51.724Z,20.10
2023-01-12T04:45:20.044Z,15.80
2023-01-12T04:47:47.864Z,17.52
2023-01-12T04:50:15.952Z,19.52
2023-01-12T04:52:46.142Z,21.55
2023-01-12T04:55:13.970Z,20.50
2023-01-12T04:57:41.890Z,20.85
2023-01-12T05:00:11.323Z,15.80
2023-01-12T05:02:39.232Z,14.07
2023-01-12T05:05:08.830Z,15.85
2023-01-12T05:07:37.157Z,19.15
2023-01-12T05:10:27.457Z,19.67
2023-01-12T05:12:55.688Z,15.50
2023-01-12T05:15:23.811Z,14.90
2023-01-12T05:17:52.160Z,17.60
2023-01-12T05:20:20.663Z,14.20
2023-01-12T05:22:50.623Z,13.90
2023-01-12T05:25:20.398Z,20.27
2023-01-12T05:27:48.258Z,16.13
2023-01-12T05:30:16.955Z,15.77
2023-01-12T05:32:45.534Z,9.40
2023-01-12T05:35:13.412Z,8.05
2023-01-12T05:37:41.195Z,16.90
2023-01-12T05:40:10.853Z,16.58
2023-01-12T05:42:57.916Z,25.95
2023-01-12T05:45:26.379Z,22.13
2023-01-12T05:47:58.177Z,14.05
2023-01-12T05:50:26.637Z,17.98
2023-01-12T05:52:54.480Z,16.75
2023-01-12T05:55:22.235Z,15.95
2023-01-12T05:57:52.009Z,13.15
2023-01-12T06:00:20.504Z,19.55
2023-01-12T06:02:48.409Z,15.75
2023-01-12T06:05:16.731Z,15.60
2023-01-12T06:07:44.598Z,10.68
2023-01-12T06:10:13.308Z,13.65
2023-01-12T06:12:59.291Z,14.48
2023-01-12T06:15:28.475Z,10.48
2023-01-12T06:17:57.834Z,15.40
2023-01-12T06:20:26.423Z,15.82
2023-01-12T06:22:54.216Z,12.05
2023-01-12T06:25:22.381Z,12.02
2023-01-12T06:27:50.909Z,19.10
2023-01-12T06:30:19.196Z,22.38
2023-01-12T06:32:48.460Z,16.63
2023-01-12T06:35:19.616Z,14.20
2023-01-12T06:37:47.747Z,11.98
2023-01-12T06:40:15.876Z,12.05
2023-01-12T06:42:44.279Z,10.15
2023-01-12T06:45:12.356Z,10.07
2023-01-12T06:47:46.773Z,15.95
2023-01-12T06:50:16.511Z,12.50
2023-01-12T06:52:44.348Z,14.82
2023-01-12T06:55:12.576Z,12.07
2023-01-12T06:57:40.678Z,11.75
2023-01-12T07:00:12.671Z,12.48
2023-01-12T07:02:40.863Z,11.70
2023-01-12T07:05:09.510Z,14.50
2023-01-12T07:07:40.368Z,9.95
2023-01-12T07:10:09.035Z,10.85
2023-01-12T07:12:36.902Z,6.75
2023-01-12T07:15:06.050Z,11.05
2023-01-12T07:17:33.946Z,6.40
2023-01-12T07:20:01.773Z,10.27
2023-01-12T07:22:30.576Z,12.93
2023-01-12T07:24:59.831Z,10.20
2023-01-12T07:27:27.551Z,11.75
2023-01-12T07:29:56.220Z,13.63
2023-01-12T07:32:27.278Z,16.38
2023-01-12T07:34:55.094Z,8.15
2023-01-12T07:37:23.139Z,10.77
2023-01-12T07:39:50.965Z,9.55
2023-01-12T07:42:26.268Z,8.98
2023-01-12T07:44:54.191Z,11.68
2023-01-12T07:47:22.000Z,11.68
2023-01-12T07:49:50.350Z,9.15
2023-01-12T07:52:18.200Z,10.95
2023-01-12T07:54:46.040Z,14.05
2023-01-12T07:57:14.547Z,13.82
2023-01-12T07:59:43.750Z,10.73
2023-01-12T08:02:17.115Z,14.20
2023-01-12T08:04:45.222Z,15.88
2023-01-12T08:07:14.773Z,10.98
2023-01-12T08:09:43.199Z,16.08
2023-01-12T08:12:11.157Z,7.68
2023-01-12T08:14:41.644Z,11.43
2023-01-12T08:17:17.531Z,15.20
2023-01-12T08:19:50.530Z,8.48
2023-01-12T08:22:22.909Z,14.25
2023-01-12T08:24:54.897Z,12.07
2023-01-12T08:27:27.320Z,12.23
2023-01-12T08:29:58.675Z,9.15
2023-01-12T08:32:29.958Z,10.13
2023-01-12T08:35:01.749Z,12.85
2023-01-12T08:37:31.417Z,9.02
2023-01-12T08:39:59.527Z,9.55
2023-01-12T08:42:28.768Z,11.57
2023-01-12T08:44:57.990Z,10.68
2023-01-12T08:47:30.309Z,9.55
2023-01-12T08:50:01.024Z,12.95
2023-01-12T08:52:31.777Z,14.15
2023-01-12T08:55:00.169Z,13.00
2023-01-12T08:57:28.676Z,13.38
2023-01-12T08:59:57.563Z,10.25
2023-01-12T09:02:27.154Z,11.25
2023-01-12T09:04:57.171Z,11.38
2023-01-12T09:07:25.583Z,9.60
2023-01-12T09:09:53.464Z,7.43
2023-01-12T09:12:24.311Z,7.72
2023-01-12T09:14:53.699Z,11.00
2023-01-12T09:17:23.455Z,12.68
2023-01-12T09:19:51.488Z,8.65
2023-01-12T09:22:20.880Z,9.27
2023-01-12T09:24:49.237Z,10.63
2023-01-12T09:27:17.031Z,5.78
2023-01-12T09:29:44.912Z,5.32
2023-01-12T09:32:12.824Z,7.38
2023-01-12T09:34:40.919Z,9.98
2023-01-12T09:37:08.882Z,9.88
2023-01-12T09:39:38.714Z,10.80
2023-01-12T09:42:26.962Z,10.70
2023-01-12T09:45:12.638Z,11.63
2023-01-12T09:47:44.675Z,8.43
2023-01-12T09:50:15.973Z,12.00
2023-01-12T09:52:48.101Z,11.98
2023-01-12T09:55:22.080Z,13.52
2023-01-12T09:58:11.436Z,8.70
2023-01-12T10:00:40.116Z,5.20
2023-01-12T10:03:15.361Z,9.48
2023-01-12T10:05:49.064Z,13.55
2023-01-12T10:08:23.584Z,8.63
2023-01-12T10:11:06.378Z,4.27
2023-01-12T10:14:00.246Z,7.88
2023-01-12T10:16:36.736Z,11.32
2023-01-12T10:19:13.338Z,7.15
2023-01-12T10:21:42.721Z,14.13
2023-01-12T10:24:13.840Z,7.60
2023-01-12T10:26:44.878Z,6.10
2023-01-12T10:29:13.601Z,6.53
2023-01-12T10:31:41.757Z,7.80
2023-01-12T10:34:12.231Z,9.32
2023-01-12T10:36:44.385Z,10.68
2023-01-12T10:39:30.196Z,6.82
2023-01-12T10:45:17.949Z,10.25
2023-01-12T10:47:47.169Z,8.50
2023-01-12T10:50:23.880Z,7.03
2023-01-12T10:52:56.877Z,6.10
2023-01-12T10:55:27.164Z,7.18
2023-01-12T10:57:56.690Z,6.13
2023-01-12T11:00:27.935Z,5.43
2023-01-12T11:02:56.079Z,7.90
2023-01-12T11:05:34.718Z,7.03
2023-01-12T11:08:02.857Z,7.85
2023-01-12T11:10:32.276Z,5.55
2023-01-12T11:13:04.897Z,10.50
2023-01-12T11:15:39.092Z,8.95
2023-01-12T11:18:28.091Z,5.35
2023-01-12T11:21:02.151Z,6.22
2023-01-12T11:23:38.210Z,8.85
2023-01-12T11:26:19.258Z,8.35
2023-01-12T11:28:52.754Z,9.00
2023-01-12T11:31:23.867Z,7.47
2023-01-12T11:33:57.097Z,7.82
2023-01-12T11:36:30.161Z,6.88
2023-01-12T11:39:04.600Z,3.67
2023-01-12T11:41:37.681Z,6.57
2023-01-12T11:44:15.869Z,8.15
2023-01-12T11:46:47.759Z,4.47
2023-01-12T11:49:24.759Z,4.22
2023-01-12T11:51:57.469Z,3.83
2023-01-12T11:54:27.730Z,5.45
2023-01-12T11:57:35.599Z,5.38
2023-01-12T12:00:45.429Z,3.83
2023-01-12T12:03:44.190Z,9.02
2023-01-12T12:06:28.983Z,8.23
2023-01-12T12:09:08.998Z,3.20
2023-01-12T12:11:48.566Z,3.78
2023-01-12T12:14:28.965Z,3.63
2023-01-12T12:17:04.070Z,4.97
2023-01-12T12:19:43.104Z,6.38
2023-01-12T12:22:25.796Z,3.38
2023-01-12T12:25:04.938Z,7.10
2023-01-12T12:27:54.998Z,4.07
2023-01-12T12:30:39.871Z,4.00
2023-01-12T12:33:20.850Z,4.67
2023-01-12T12:36:03.675Z,2.92
2023-01-12T12:38:44.725Z,7.00
2023-01-12T12:41:43.813Z,4.38
2023-01-12T12:44:47.083Z,4.18
2023-01-12T12:47:44.361Z,3.92
2023-01-12T12:50:20.488Z,4.40
2023-01-12T12:53:01.121Z,2.42
2023-01-12T12:55:29.528Z,2.83
2023-01-12T12:58:02.244Z,3.85
2023-01-12T13:00:33.602Z,3.67
2023-01-12T13:03:01.370Z,5.95
2023-01-12T13:05:43.839Z,5.10
2023-01-12T13:08:22.659Z,7.40
2023-01-12T13:10:56.830Z,4.75
2023-01-12T13:13:32.745Z,4.78
2023-01-12T13:16:46.672Z,4.97
2023-01-12T13:19:33.042Z,2.50
2023-01-12T13:22:20.269Z,4.00
2023-01-12T13:24:49.472Z,2.55
2023-01-12T13:27:50.241Z,2.65
2023-01-12T13:30:40.491Z,3.13
2023-01-12T13:33:33.025Z,5.97
2023-01-12T13:36:10.832Z,2.90
2023-01-12T13:39:02.131Z,2.97
2023-01-12T13:41:52.041Z,3.80
2023-01-12T13:44:29.078Z,4.88
2023-01-12T13:47:05.292Z,2.97
2023-01-12T13:49:34.947Z,3.15
2023-01-12T13:52:05.225Z,3.60
2023-01-12T13:54:34.608Z,2.30
2023-01-12T13:57:10.661Z,5.93
2023-01-12T13:59:38.741Z,3.03
2023-01-12T14:02:18.983Z,4.65
2023-01-12T14:05:04.177Z,4.10
2023-01-12T14:07:44.538Z,4.13
2023-01-12T14:10:26.001Z,6.45
2023-01-12T14:13:15.975Z,3.17
2023-01-12T14:16:02.528Z,2.17
2023-01-12T14:18:42.011Z,2.45
2023-01-12T14:21:23.232Z,2.88
2023-01-12T14:23:51.159Z,2.15
2023-01-12T14:26:23.921Z,2.30
2023-01-12T14:28:54.133Z,2.47
2023-01-12T14:31:28.338Z,3.25
2023-01-12T14:33:58.332Z,3.95
2023-01-12T14:36:30.445Z,5.53
2023-01-12T14:39:00.739Z,1.95
2023-01-12T14:41:48.282Z,4.90
2023-01-12T14:44:38.392Z,1.70
2023-01-12T14:47:06.757Z,6.95
2023-01-12T14:49:35.920Z,2.97
2023-01-12T14:52:22.832Z,3.38
2023-01-12T14:54:52.114Z,3.63
2023-01-12T14:57:24.487Z,4.90
2023-01-12T14:59:54.353Z,2.53
2023-01-12T15:02:34.581Z,2.90
2023-01-12T15:05:04.529Z,7.75
2023-01-12T15:07:36.850Z,6.30
2023-01-12T15:10:32.235Z,8.90
2023-01-12T15:13:13.169Z,4.43
2023-01-12T15:15:59.460Z,6.00
2023-01-12T15:18:45.291Z,6.90
2023-01-12T15:24:18.480Z,4.22
2023-01-12T15:26:51.101Z,5.28
2023-01-12T15:29:24.269Z,7.50
2023-01-12T15:31:53.574Z,4.93
2023-01-12T15:34:21.498Z,4.43
2023-01-12T15:36:49.816Z,2.03
2023-01-12T15:39:17.657Z,2.38
2023-01-12T15:42:03.901Z,4.72
2023-01-12T15:44:31.640Z,1.73
2023-01-12T15:47:01.214Z,2.72
2023-01-12T15:49:29.749Z,3.25
2023-01-12T15:51:57.508Z,3.40
2023-01-12T15:54:25.384Z,3.53
2023-01-12T15:56:54.353Z,2.05
2023-01-12T15:59:22.179Z,1.70
2023-01-12T16:01:50.824Z,1.33
2023-01-12T16:07:11.501Z,2.47
2023-01-12T16:09:41.576Z,5.15
2023-01-12T16:12:10.160Z,3.72
2023-01-12T16:14:38.334Z,6.70
2023-01-12T16:17:06.655Z,3.53
2023-01-12T16:19:41.265Z,7.65
2023-01-12T16:22:18.361Z,5.18
2023-01-12T16:24:46.136Z,4.53
2023-01-12T16:27:13.965Z,3.50
2023-01-12T16:29:42.530Z,6.20
2023-01-12T16:32:10.859Z,10.10
2023-01-12T16:34:40.819Z,3.78
2023-01-12T16:37:14.524Z,6.88
2023-01-12T16:39:43.014Z,4.05
2023-01-12T16:42:11.349Z,67.63
2023-01-12T16:44:41.080Z,25.15
2023-01-12T16:47:12.023Z,12.85
2023-01-12T16:49:41.896Z,10.65
2023-01-12T16:52:14.467Z,5.00
2023-01-12T16:54:44.347Z,4.78
2023-01-12T16:57:12.992Z,3.33
2023-01-12T16:59:40.919Z,7.82
2023-01-12T17:02:10.184Z,4.78
2023-01-12T17:04:39.618Z,5.95
2023-01-12T17:09:59.137Z,5.55
2023-01-12T17:15:16.121Z,4.18
2023-01-12T17:17:45.336Z,4.70
2023-01-12T17:20:13.761Z,6.47
2023-01-12T17:22:43.869Z,3.00
2023-01-12T17:25:12.746Z,4.03
2023-01-12T17:27:40.555Z,2.80
2023-01-12T17:30:09.799Z,3.55
2023-01-12T17:32:38.361Z,3.50
2023-01-12T17:35:09.368Z,2.65
2023-01-12T17:37:37.505Z,6.05
2023-01-12T17:40:08.419Z,5.10
2023-01-12T17:42:53.481Z,4.80
2023-01-12T17:45:21.860Z,9.50
2023-01-12T17:47:49.817Z,10.38
2023-01-12T17:50:18.060Z,15.57
2023-01-12T17:52:46.465Z,8.23
2023-01-12T17:55:15.933Z,7.15
2023-01-12T17:57:43.948Z,18.73
2023-01-12T18:00:16.174Z,7.88
2023-01-12T18:02:44.253Z,4.35
2023-01-12T18:05:12.312Z,7.20
2023-01-12T18:07:42.062Z,5.60
2023-01-12T18:10:11.542Z,10.68
2023-01-12T18:12:41.441Z,22.83
2023-01-12T18:15:10.746Z,22.90
2023-01-12T18:17:38.840Z,17.63
2023-01-12T18:20:08.059Z,7.97
2023-01-12T18:22:35.832Z,10.07
2023-01-12T18:25:03.547Z,10.13
2023-01-12T18:27:31.859Z,10.05
2023-01-12T18:30:01.245Z,13.38
2023-01-12T18:32:29.046Z,9.38
2023-01-12T18:34:58.402Z,7.68
2023-01-12T18:37:26.202Z,4.35
2023-01-12T18:39:54.081Z,10.18
2023-01-12T18:42:39.751Z,7.15
2023-01-12T18:45:10.057Z,14.35
2023-01-12T18:47:55.504Z,12.50
2023-01-12T18:50:42.370Z,11.38
2023-01-12T18:53:30.954Z,16.77
2023-01-12T18:56:02.413Z,14.07
2023-01-12T18:58:33.178Z,7.72
2023-01-12T19:01:04.971Z,6.18
2023-01-12T19:03:34.418Z,9.88
2023-01-12T19:06:19.755Z,3.20
2023-01-12T19:09:05.019Z,5.63
2023-01-12T19:11:33.036Z,7.72
2023-01-12T19:14:18.615Z,3.38
2023-01-12T19:17:05.204Z,8.13
2023-01-12T19:19:35.049Z,5.70
2023-01-12T19:22:21.111Z,2.88
2023-01-12T19:25:11.709Z,5.05
2023-01-12T19:27:57.235Z,5.75
2023-01-12T19:30:25.445Z,7.72
2023-01-12T19:32:55.467Z,5.10
2023-01-12T19:35:23.330Z,6.25
2023-01-12T19:37:51.851Z,5.55
2023-01-12T19:40:25.709Z,9.57
2023-01-12T19:43:12.726Z,7.20
2023-01-12T19:45:41.757Z,7.80
2023-01-12T19:48:12.891Z,6.90
2023-01-12T19:50:43.244Z,7.93
2023-01-12T19:53:13.954Z,6.88
2023-01-12T19:55:42.837Z,9.27
2023-01-12T19:58:11.258Z,3.97
2023-01-12T20:00:43.682Z,10.57
2023-01-12T20:03:14.873Z,4.60
2023-01-12T20:05:44.085Z,6.75
2023-01-12T20:08:12.552Z,4.53
2023-01-12T20:10:40.426Z,4.72
2023-01-12T20:13:09.185Z,4.72
2023-01-12T20:15:39.793Z,5.97
2023-01-12T20:18:08.886Z,10.18
2023-01-12T20:20:40.547Z,5.80
2023-01-12T20:23:08.414Z,5.20
2023-01-12T20:25:36.284Z,3.83
2023-01-12T20:28:04.259Z,5.72
2023-01-12T20:30:37.933Z,2.50
2023-01-12T20:33:06.394Z,6.45
2023-01-12T20:35:34.986Z,8.35
2023-01-12T20:38:07.182Z,6.32
2023-01-12T20:40:35.343Z,5.45
2023-01-12T20:43:03.251Z,4.20
2023-01-12T20:45:31.243Z,4.05
2023-01-12T20:47:59.158Z,5.50
2023-01-12T20:50:27.137Z,3.47
2023-01-12T20:52:55.241Z,5.78
2023-01-12T20:55:24.561Z,8.93
2023-01-12T20:57:53.716Z,6.55
2023-01-12T21:00:22.090Z,3.33
2023-01-12T21:02:50.077Z,3.47
2023-01-12T21:05:18.075Z,4.15
2023-01-12T21:07:47.495Z,4.07
2023-01-12T21:10:16.918Z,2.47
2023-01-12T21:12:46.835Z,2.70
2023-01-12T21:15:14.733Z,2.80
2023-01-12T21:17:42.804Z,2.65
2023-01-12T21:20:12.361Z,4.65
2023-01-12T21:22:40.251Z,5.53
2023-01-12T21:25:09.589Z,4.50
2023-01-12T21:27:39.126Z,2.97
2023-01-12T21:30:12.343Z,3.15
2023-01-12T21:32:40.870Z,3.45
2023-01-12T21:35:09.405Z,4.43
2023-01-12T21:37:37.346Z,4.15
2023-01-12T21:40:06.113Z,2.33
2023-01-12T21:42:51.270Z,3.58
2023-01-12T21:45:21.192Z,3.58
2023-01-12T21:47:49.013Z,2.63
2023-01-12T21:50:17.653Z,3.88
2023-01-12T21:52:45.717Z,3.17
2023-01-12T21:55:13.833Z,1.75
2023-01-12T21:57:41.745Z,2.50
2023-01-12T22:00:12.013Z,4.30
2023-01-12T22:02:41.627Z,3.20
2023-01-12T22:05:10.637Z,3.75
2023-01-12T22:07:38.961Z,3.20
2023-01-12T22:10:19.997Z,2.33
2023-01-12T22:12:48.631Z,4.45
2023-01-12T22:15:16.958Z,2.90
2023-01-12T22:17:46.225Z,3.63
2023-01-12T22:20:16.440Z,4.07
2023-01-12T22:22:45.172Z,3.88
2023-01-12T22:25:15.676Z,1.38
2023-01-12T22:27:44.319Z,3.13
2023-01-12T22:30:14.848Z,3.33
2023-01-12T22:32:43.011Z,3.30
2023-01-12T22:35:14.443Z,5.00
2023-01-12T22:37:42.783Z,1.85
2023-01-12T22:40:13.322Z,5.22
2023-01-12T22:43:01.326Z,4.30
2023-01-12T22:45:29.403Z,5.82
2023-01-12T22:47:57.739Z,7.40
2023-01-12T22:50:27.545Z,8.43
2023-01-12T22:52:56.451Z,5.40
2023-01-12T22:55:26.136Z,4.38
2023-01-12T22:57:54.600Z,3.75
2023-01-12T23:00:22.541Z,3.63
2023-01-12T23:03:03.254Z,5.28
2023-01-12T23:05:36.248Z,5.00
2023-01-12T23:08:06.049Z,5.90
2023-01-12T23:10:34.235Z,11.00
2023-01-12T23:13:19.691Z,6.82
2023-01-12T23:15:50.316Z,9.52
2023-01-12T23:18:21.493Z,10.18
2023-01-12T23:20:50.895Z,8.48
2023-01-12T23:23:18.772Z,8.00
2023-01-12T23:25:48.652Z,16.77
2023-01-12T23:28:17.035Z,11.30
2023-01-12T23:30:45.254Z,15.25
2023-01-12T23:33:13.886Z,8.40
2023-01-12T23:35:43.279Z,12.98
2023-01-12T23:38:16.504Z,12.98
2023-01-12T23:40:44.557Z,6.63
2023-01-12T23:43:12.363Z,13.82
2023-01-12T23:45:40.777Z,7.47
2023-01-12T23:48:08.872Z,11.68
2023-01-12T23:50:36.926Z,9.52
2023-01-12T23:53:05.136Z,8.20
2023-01-12T23:55:34.422Z,8.57
2023-01-12T23:58:02.275Z,11.40
